Time;durP1;ratioP1;P1;durP2;ratioP2;P2;SDS_P1;SDS_P2;PMS_P1;PMS_P2;Temp;Humidity;BMP_temperature;BMP_pressure;BME280_temperature;BME280_humidity;BME280_pressure;Samples;Min_cycle;Max_cycle;Signal;HPM_P1;HPM_P2
2021/07/29 05:26:47;;;;;;;14.10;8.32;;;;;;;16.96;94.97;99925.56;5055843;28;20392;-84
2021/07/29 05:29:13;;;;;;;18.17;7.95;;;;;;;16.49;95.24;99847.53;5054661;28;20045;-84
2021/07/29 05:57:35;;;;;;;20.65;11.05;;;;;;;16.30;96.50;99830.84;5609855;23;20249;-84
2021/07/29 06:00:00;;;;;;;20.17;10.30;;;;;;;16.64;96.96;99891.06;5054385;28;20043;-85
2021/07/29 06:02:26;;;;;;;19.15;10.90;;;;;;;16.07;97.37;99813.03;5053826;28;20045;-86
2021/07/29 06:41:07;;;;;;;13.50;6.50;;;;;;;16.13;95.22;99778.59;6121360;22;21009;-76
2021/07/29 06:53:54;;;;;;;13.48;5.60;;;;;;;16.93;95.51;99904.34;5949683;22;20346;-83
2021/07/29 07:29:57;;;;;;;11.93;3.90;;;;;;;16.60;91.39;99731.63;5855377;22;20033;-82
2021/07/29 08:54:14;;;;;;;7.72;2.33;;;;;;;19.43;74.55;99659.00;5881554;23;20051;-81
2021/07/29 08:56:40;;;;;;;10.90;2.63;;;;;;;19.32;74.21;99654.75;5134041;23;20036;-83
2021/07/29 10:53:20;;;;;;;4.35;1.10;;;;;;;19.22;67.26;99592.91;5346773;23;20032;-83
2021/07/29 10:58:21;;;;;;;3.20;1.10;;;;;;;19.58;67.03;99627.25;5697275;23;20051;-84
2021/07/29 11:03:23;;;;;;;3.80;1.20;;;;;;;20.61;66.47;99778.06;5810380;23;20085;-84
2021/07/29 11:06:02;;;;;;;4.07;1.10;;;;;;;19.54;67.22;99590.72;5630211;23;20182;-76
2021/07/29 11:19:00;;;;;;;4.00;1.25;;;;;;;19.12;64.82;99573.91;5768909;23;20058;-83
2021/07/29 11:21:27;;;;;;;4.03;1.10;;;;;;;19.32;65.75;99619.28;4942987;29;20064;-83
2021/07/29 16:10:46;;;;;;;9.70;1.85;;;;;;;17.97;66.97;99743.88;5961668;23;20121;31
2021/07/29 17:44:39;;;;;;;8.20;1.27;;;;;;;15.70;80.57;99564.28;5967984;23;20028;31
2021/07/29 18:05:11;;;;;;;4.55;0.85;;;;;;;15.00;80.59;99495.00;5265404;23;20068;-82
2021/07/29 18:07:37;;;;;;;4.30;1.05;;;;;;;15.39;81.00;99541.56;4912170;29;20080;-82
2021/07/29 19:29:26;;;;;;;7.82;1.67;;;;;;;14.71;90.72;99590.06;5935612;23;20020;31
2021/07/29 19:31:53;;;;;;;10.65;2.67;;;;;;;14.08;90.76;99483.31;4844773;29;20033;-85
2021/07/29 19:36:55;;;;;;;4.97;1.88;;;;;;;14.18;91.14;99496.94;5579129;23;20045;-84
2021/07/29 19:39:21;;;;;;;7.65;2.10;;;;;;;15.14;91.36;99636.25;4896505;29;20017;-83
2021/07/29 19:54:42;;;;;;;7.15;2.10;;;;;;;14.34;92.39;99490.63;5668827;23;20052;-84
2021/07/29 19:57:08;;;;;;;12.10;2.60;;;;;;;14.40;92.42;99502.28;4902606;29;20041;-84
2021/07/29 19:59:35;;;;;;;5.93;2.30;;;;;;;14.34;92.79;99470.88;4904551;29;20095;-84
2021/07/29 20:02:02;;;;;;;12.05;2.50;;;;;;;14.34;92.70;99477.09;4914244;29;20029;-84
2021/07/29 20:07:03;;;;;;;6.95;1.98;;;;;;;15.06;92.90;99577.91;5471626;23;20109;-84
2021/07/29 20:30:07;;;;;;;7.75;1.95;;;;;;;15.20;90.50;99533.06;4870468;29;20050;-81
2021/07/29 20:32:33;;;;;;;7.53;2.10;;;;;;;15.15;90.39;99524.88;4871839;29;20503;-80
2021/07/29 20:35:00;;;;;;;7.25;2.20;;;;;;;15.02;90.39;99509.88;4879871;29;20078;-83
2021/07/29 20:37:28;;;;;;;7.22;2.60;;;;;;;14.41;89.88;99405.72;4881537;29;20002;-81
2021/07/29 20:39:55;;;;;;;9.10;2.25;;;;;;;15.00;90.05;99493.09;4884521;29;20025;-82
2021/07/29 20:42:20;;;;;;;9.40;2.78;;;;;;;15.39;90.27;99560.53;4869873;29;20037;-83
2021/07/29 20:44:46;;;;;;;7.25;2.28;;;;;;;14.94;90.32;99475.16;4894570;29;20062;-84
2021/07/29 20:47:12;;;;;;;6.20;2.13;;;;;;;15.82;89.81;99606.66;4885342;29;20058;-82
2021/07/29 20:49:37;;;;;;;7.68;2.47;;;;;;;15.85;89.80;99601.50;4884935;29;20073;-83
2021/07/29 20:57:13;;;;;;;8.75;2.58;;;;;;;15.90;89.99;99589.91;5061332;23;20067;-83
2021/07/29 20:59:45;;;;;;;10.05;2.58;;;;;;;15.64;90.32;99554.47;4883599;29;20040;-81
2021/07/29 21:02:13;;;;;;;5.60;1.92;;;;;;;15.29;89.73;99476.47;4890803;29;20065;-84
2021/07/29 21:04:39;;;;;;;9.55;2.67;;;;;;;15.28;89.28;99480.25;4884401;29;20014;-83
2021/07/29 21:07:04;;;;;;;11.13;3.33;;;;;;;14.78;89.57;99392.19;4883823;29;20037;-84
2021/07/29 21:09:30;;;;;;;11.23;2.42;;;;;;;15.18;89.48;99453.09;4896705;29;20053;-83
2021/07/29 21:11:56;;;;;;;8.45;2.72;;;;;;;15.37;89.38;99481.41;4887503;29;20017;-83
2021/07/29 21:14:22;;;;;;;11.05;2.72;;;;;;;14.87;89.33;99392.53;4884468;29;20009;-83
2021/07/29 21:16:48;;;;;;;9.50;2.50;;;;;;;15.03;89.05;99414.00;4888768;29;20017;-83
2021/07/29 21:19:13;;;;;;;7.50;2.50;;;;;;;15.07;88.95;99402.66;4883957;29;20060;-84
2021/07/29 21:21:41;;;;;;;8.90;2.47;;;;;;;15.25;88.76;99426.56;4883813;29;20014;-84
2021/07/29 21:24:09;;;;;;;9.27;2.60;;;;;;;15.00;88.84;99378.50;4887963;29;20022;-82
2021/07/29 21:26:37;;;;;;;12.32;2.85;;;;;;;16.18;89.08;99577.78;4890345;29;20029;-84
2021/07/29 21:29:04;;;;;;;11.80;2.88;;;;;;;16.16;89.59;99577.25;4877508;29;20034;-82
2021/07/29 21:31:30;;;;;;;12.13;2.85;;;;;;;16.12;89.94;99555.22;4883977;29;20026;-83
2021/07/29 21:33:57;;;;;;;10.82;2.53;;;;;;;15.43;89.50;99469.50;4884429;29;20029;-83
2021/07/29 21:36:23;;;;;;;10.95;3.20;;;;;;;15.85;89.40;99520.13;4864658;29;20427;-80
2021/07/29 21:38:49;;;;;;;8.27;2.60;;;;;;;16.17;89.63;99573.44;4888387;29;20017;-83
2021/07/29 21:41:14;;;;;;;10.65;2.75;;;;;;;15.50;89.61;99466.56;4884682;29;20110;-83
2021/07/29 21:51:26;;;;;;;11.25;2.70;;;;;;;15.02;89.83;99406.94;5959630;23;20003;-77
2021/07/29 21:53:52;;;;;;;9.43;2.60;;;;;;;15.13;90.35;99428.69;4879945;29;20163;-82
2021/07/29 21:58:45;;;;;;;8.55;2.60;;;;;;;15.21;90.96;99447.16;4883019;29;20042;-83
2021/07/29 22:01:10;;;;;;;11.75;2.90;;;;;;;15.66;91.12;99525.22;4883510;29;20017;-81
2021/07/29 22:03:36;;;;;;;8.43;2.53;;;;;;;15.10;91.45;99437.31;4881982;29;20067;-82
2021/07/29 22:06:02;;;;;;;11.10;3.05;;;;;;;15.62;91.72;99523.25;4883361;29;20034;-82
2021/07/29 22:08:29;;;;;;;9.10;2.95;;;;;;;14.81;92.22;99397.09;4885710;29;20045;-83
2021/07/29 22:10:55;;;;;;;10.82;3.05;;;;;;;15.86;92.30;99578.75;4886080;29;20009;-82
2021/07/29 22:13:22;;;;;;;12.77;2.83;;;;;;;15.19;92.43;99477.22;4898636;29;20014;-81
2021/07/29 22:15:48;;;;;;;8.73;2.70;;;;;;;14.74;92.39;99404.63;4887764;29;20037;-83
2021/07/29 22:18:14;;;;;;;14.90;3.30;;;;;;;14.83;92.27;99413.88;4887336;29;20041;-83
2021/07/29 22:20:41;;;;;;;11.05;2.97;;;;;;;14.79;92.20;99410.06;4896083;29;20014;-83
2021/07/29 22:23:07;;;;;;;10.80;2.67;;;;;;;15.03;91.89;99451.09;4887213;29;20036;-82
2021/07/29 22:25:33;;;;;;;8.73;2.58;;;;;;;14.85;91.86;99411.72;4887176;29;20029;-82
2021/07/29 22:27:58;;;;;;;12.63;2.85;;;;;;;15.89;91.99;99578.22;4887999;29;20045;-82
2021/07/29 22:30:24;;;;;;;11.07;3.03;;;;;;;14.88;92.27;99408.50;4893765;29;20021;-82
2021/07/29 22:32:50;;;;;;;10.00;2.75;;;;;;;15.16;91.80;99439.00;4906463;29;20013;-83
2021/07/29 22:35:15;;;;;;;10.75;2.83;;;;;;;15.32;91.39;99470.50;4900649;29;20077;-83
2021/07/29 23:34:31;;;;;;;9.05;2.33;;;;;;;15.17;89.65;99379.13;5713263;23;20018;-83
2021/07/29 23:39:32;;;;;;;9.63;2.55;;;;;;;15.32;89.62;99410.06;5079328;23;20044;-83
2021/07/29 23:41:57;;;;;;;14.68;3.58;;;;;;;15.45;89.80;99415.81;4922935;29;20043;-84
2021/07/29 23:44:25;;;;;;;6.93;2.55;;;;;;;15.44;89.61;99406.06;4919026;29;20025;-83
2021/07/29 23:46:52;;;;;;;11.93;2.90;;;;;;;15.07;89.39;99354.72;4911178;29;20012;-83
2021/07/29 23:49:17;;;;;;;10.20;2.30;;;;;;;15.38;89.53;99399.00;4908956;29;20040;-84
2021/07/29 23:51:43;;;;;;;9.45;2.70;;;;;;;16.14;89.72;99511.56;4903820;29;20043;-84
2021/07/29 23:54:11;;;;;;;14.23;2.88;;;;;;;15.63;89.68;99421.84;4906190;29;20017;-82
2021/07/29 23:56:40;;;;;;;9.40;2.72;;;;;;;15.40;89.51;99390.63;4906826;29;20013;-84
2021/07/29 23:59:07;;;;;;;11.77;3.08;;;;;;;16.14;89.88;99487.13;4905323;29;20029;-84
